ADDS METAR Data INFO
IDs: Format: Raw Decoded Include TAF

Data at: 0501 UTC 23 May 2017

KSEP 230455Z AUTO 00000KT 10SM OVC019 20/17 A2997 RMK AO2 T02020172
KSEP 230435Z AUTO 31005KT 10SM SCT019 20/17 A2997 RMK AO2 T02010171
KSEP 230415Z AUTO 00000KT 10SM SCT110 20/17 A2992 RMK AO2 T01970170
KSEP 230355Z AUTO 16013G16KT 10SM BKN110 20/17 A2990 RMK AO2 T01950170
KSEP 230335Z AUTO 12006KT 10SM BKN110 20/17 A2995 RMK AO2 T01980171
KSEP 230315Z AUTO 00000KT 10SM BKN110 20/17 A2999 RMK AO2 T02010170
KSEP 230255Z AUTO 00000KT 10SM SCT110 20/17 A2999 RMK AO2 T02020168
KSEP 230235Z AUTO 16004KT 10SM SCT055 SCT070 20/17 A2997 RMK AO2 T02020166
KSEP 230215Z AUTO 00000KT 10SM BKN055 21/17 A2997 RMK AO2 T02060165
KSEP 230155Z AUTO 00000KT 10SM BKN055 21/17 A2995 RMK AO2 T02100165
KSEP 230135Z AUTO 00000KT 10SM BKN055 22/17 A2995 RMK AO2 T02150165
KSEP 230115Z AUTO 00000KT 10SM SCT055 22/16 A2995 RMK AO2 T02150164
KSEP 230055Z AUTO 00000KT 10SM CLR 22/16 A2995 RMK AO2 T02210162
KSEP 230035Z AUTO 11004KT 10SM SCT050 23/16 A2995 RMK AO2 T02250161
KSEP 230015Z AUTO 10005KT 10SM OVC050 23/16 A2995 RMK AO2 T02300160
KSEP 222355Z AUTO 10003KT 10SM OVC050 23/16 A2995 RMK AO2 T02320161 10252 20208
KSEP 222335Z AUTO 08004KT 10SM OVC050 24/16 A2995 RMK AO2 T02360161
KSEP 222315Z AUTO 09006KT 10SM SCT043 OVC050 24/16 A2995 RMK AO2 T02420157
KSEP 222255Z AUTO 13006KT 10SM SCT033 BKN041 OVC050 24/16 A2996 RMK AO2 T02440161
KSEP 222235Z AUTO 19005KT 10SM SCT033 SCT041 OVC055 25/16 A2996 RMK AO2 T02510156
KSEP 222215Z AUTO 12005KT 10SM SCT031 SCT041 BKN055 24/15 A2997 RMK AO2 T02390151
KSEP 222155Z AUTO 14003KT 10SM SCT029 SCT035 24/16 A2998 RMK AO2 T02440159
KSEP 222135Z AUTO 12003KT 10SM SCT027 SCT040 25/16 A2998 RMK AO2 T02450158
KSEP 222115Z AUTO 14006KT 10SM BKN038 24/16 A2999 RMK AO2 T02440160
KSEP 222055Z AUTO 10003KT 10SM SCT030 OVC038 23/16 A3000 RMK AO2 T02310161
KSEP 222035Z AUTO 16003KT 10SM SCT024 OVC032 23/16 A3001 RMK AO2 T02260161
KSEP 222015Z AUTO 12003KT 10SM SCT023 OVC030 23/16 A3002 RMK AO2 T02290158
KSEP 221955Z AUTO 11005KT 10SM BKN028 OVC050 23/16 A3003 RMK AO2 T02310158
KSEP 221935Z AUTO 10003KT 10SM OVC024 23/16 A3003 RMK AO2 T02260157
KSEP 221915Z AUTO 09006KT 10SM OVC021 22/16 A3004 RMK AO2 T02210158
KSEP 221855Z AUTO 11004KT 10SM OVC019 22/16 A3004 RMK AO2 T02200158
KSEP 221835Z AUTO 07005KT 10SM OVC017 22/16 A3004 RMK AO2 T02200157
KSEP 221815Z AUTO 09006KT 7SM OVC017 21/16 A3006 RMK AO2 T02100156
KSEP 221755Z AUTO 06004KT 10SM OVC017 21/16 A3008 RMK AO2 T02060156 10206 20145
KSEP 221735Z AUTO 06007KT 10SM BKN015 OVC050 20/15 A3009 RMK AO2 T02040151
KSEP 221715Z AUTO 03006KT 10SM OVC013 20/15 A3009 RMK AO2 T01950151
KSEP 221655Z AUTO 05004KT 10SM OVC011 19/15 A3010 RMK AO2 T01920151
KSEP 221635Z AUTO 06004KT 10SM OVC011 19/15 A3011 RMK AO2 T01850148
KSEP 221615Z AUTO 04006KT 10SM OVC011 18/15 A3011 RMK AO2 T01830146
KSEP 221555Z AUTO 04005KT 10SM OVC011 18/15 A3010 RMK AO2 T01830147
KSEP 221535Z AUTO 02006KT 10SM OVC011 18/15 A3011 RMK AO2 T01840145
KSEP 221515Z AUTO 00000KT 10SM OVC011 18/14 A3011 RMK AO2 T01800142
KSEP 221455Z AUTO 00000KT 10SM BKN011 BKN016 BKN060 18/14 A3011 RMK AO2 T01760142
KSEP 221435Z AUTO 11006KT 10SM SCT011 BKN016 17/14 A3011 RMK AO2 T01730141
KSEP 221415Z AUTO 00000KT 10SM BKN009 OVC016 16/14 A3012 RMK AO2 T01630141
KSEP 221355Z AUTO 00000KT 10SM BKN009 BKN016 OVC110 16/14 A3012 RMK AO2 T01550136
KSEP 221335Z AUTO 11003KT 10SM BKN007 BKN015 OVC110 15/14 A3011 RMK AO2 T01520136
KSEP 221315Z AUTO 00000KT 10SM BKN005 OVC013 15/14 A3011 RMK AO2 T01500135
KSEP 221255Z AUTO 00000KT 10SM SCT005 BKN013 OVC110 15/13 A3011 RMK AO2 T01470133
KSEP 221235Z AUTO 00000KT 10SM OVC110 15/13 A3011 RMK AO2 T01460131
KSEP 221215Z AUTO 00000KT 10SM OVC120 15/13 A3010 RMK AO2 T01450130
KSEP 221155Z AUTO 00000KT 10SM BKN120 15/13 A3011 RMK AO2 60016 70020 T01450128 10153 20142
KSEP 221135Z AUTO 00000KT 10SM SCT110 14/13 A3010 RMK AO2 T01430127
KSEP 221115Z AUTO 00000KT 10SM BKN110 14/13 A3010 RMK AO2 T01440126
KSEP 221055Z AUTO 12003KT 10SM OVC110 15/13 A3010 RMK AO2 T01450127
KSEP 221035Z AUTO 13004KT 10SM OVC110 15/13 A3010 RMK AO2 T01450130
KSEP 221015Z AUTO 11007KT 10SM OVC110 15/13 A3010 RMK AO2 T01450130
KSEP 220955Z AUTO 13005KT 10SM OVC110 15/13 A3012 RMK AO2 P0003 T01450131
KSEP 220935Z AUTO 10004KT 7SM SCT039 SCT050 OVC110 15/13 A3012 RMK AO2 P0002 T01460132
KSEP 220915Z AUTO 00000KT 10SM SCT090 OVC110 15/13 A3013 RMK AO2 P0001 T01460132
KSEP 220855Z AUTO 00000KT 10SM SCT043 SCT055 OVC110 15/13 A3014 RMK AO2 P0002 60013 T01460131
KSEP 220835Z AUTO 00000KT 10SM SCT047 SCT065 OVC100 15/13 A3015 RMK AO2 P0001 T01450130
KSEP 220815Z AUTO 00000KT 10SM SCT022 SCT065 OVC090 15/13 A3015 RMK AO2 T01450130
KSEP 220755Z AUTO 00000KT 7SM BKN022 BKN030 OVC080 15/13 A3016 RMK AO2 P0009 T01450128
KSEP 220735Z AUTO 00000KT 7SM BKN020 BKN044 OVC090 15/13 A3016 RMK AO2 P0006 T01470130
KSEP 220715Z AUTO 00000KT 7SM SCT020 BKN045 OVC090 15/13 A3016 RMK AO2 P0002 T01500131
KSEP 220655Z AUTO 00000KT 10SM SCT020 SCT047 OVC090 15/13 A3017 RMK AO2 P0001 T01500131
KSEP 220635Z AUTO 00000KT 10SM OVC100 15/13 A3016 RMK AO2 T01500130
KSEP 220615Z AUTO 12009KT 10SM OVC100 15/13 A3015 RMK AO2 T01520132
KSEP 220555Z AUTO 12006KT 10SM OVC100 15/13 A3014 RMK AO2 P0001 60004 T01530133 10205 20151
KSEP 220535Z AUTO 12007KT 10SM OVC100 15/13 A3014 RMK AO2 P0001 T01530131
KSEP 220515Z AUTO 12006KT 10SM OVC100 15/13 A3014 RMK AO2 T01510130
KSEP 220455Z AUTO 12003KT 10SM OVC110 15/13 A3014 RMK AO2 P0001 T01530131
KSEP 220435Z AUTO 10006KT 10SM OVC110 16/13 A3014 RMK AO2 T01550130
KSEP 220415Z AUTO 11005KT 10SM SCT043 OVC120 16/13 A3014 RMK AO2 T01550125
KSEP 220355Z AUTO 11005KT 10SM SCT043 SCT070 OVC110 16/13 A3014 RMK AO2 P0001 T01570126
KSEP 220335Z AUTO 00000KT 10SM OVC110 16/13 A3014 RMK AO2 T01600130
KSEP 220315Z AUTO 00000KT 10SM OVC110 16/13 A3014 RMK AO2 T01560130
KSEP 220255Z AUTO 00000KT 10SM SCT048 SCT050 OVC110 16/13 A3015 RMK AO2 P0001 60001 T01600130
KSEP 220235Z AUTO 00000KT 10SM BKN050 BKN065 OVC120 17/12 A3015 RMK AO2 T01700121
KSEP 220215Z AUTO 15006KT 10SM SCT055 SCT080 BKN120 18/12 A3014 RMK AO2 T01810119
KSEP 220155Z AUTO 16007KT 10SM OVC055 19/12 A3015 RMK AO2 T01850124
KSEP 220135Z AUTO 18006KT 10SM OVC055 19/13 A3017 RMK AO2 T01880129
KSEP 220115Z AUTO 22005KT 10SM BKN049 BKN120 19/13 A3015 RMK AO2 T01900132
KSEP 220055Z AUTO 00000KT 10SM SCT049 BKN090 BKN120 19/13 A3014 RMK AO2 T01940134
KSEP 220035Z AUTO 00000KT 10SM SCT047 SCT060 BKN090 20/13 A3013 RMK AO2 T01980130
KSEP 220015Z AUTO 00000KT 10SM BKN047 OVC060 20/12 A3012 RMK AO2 T02020118
KSEP 212355Z AUTO 00000KT 10SM SCT045 BKN060 BKN085 21/12 A3012 RMK AO2 T02050118 10221 20182
KSEP 212335Z AUTO 00000KT 10SM SCT045 21/12 A3013 RMK AO2 T02070119
KSEP 212315Z AUTO 00000KT 10SM CLR 21/12 A3013 RMK AO2 T02080117
KSEP 212255Z AUTO 00000KT 10SM SCT065 SCT120 21/11 A3013 RMK AO2 T02090113
KSEP 212235Z AUTO 00000KT 10SM SCT065 BKN120 22/10 A3014 RMK AO2 T02160100
KSEP 212215Z AUTO 08005KT 10SM SCT065 BKN110 22/09 A3014 RMK AO2 T02170091
KSEP 212155Z AUTO 09003KT 10SM BKN070 BKN075 BKN110 22/11 A3014 RMK AO2 T02150106
KSEP 212135Z AUTO 08004KT 10SM OVC070 21/10 A3015 RMK AO2 T02120101
KSEP 212115Z AUTO 09004KT 10SM BKN070 OVC090 21/10 A3016 RMK AO2 T02120102
KSEP 212055Z AUTO 09007KT 10SM BKN070 OVC090 22/10 A3015 RMK AO2 T02150097
KSEP 212035Z AUTO 08006KT 10SM OVC070 21/10 A3017 RMK AO2 T02130095
KSEP 212015Z AUTO 05006KT 10SM BKN070 22/09 A3017 RMK AO2 T02150089
KSEP 211955Z AUTO 09009KT 10SM CLR 22/10 A3017 RMK AO2 T02190095
KSEP 211935Z AUTO 08011KT 10SM CLR 21/10 A3017 RMK AO2 T02140096
KSEP 211915Z AUTO 06010KT 10SM CLR 21/09 A3016 RMK AO2 T02100094
KSEP 211855Z AUTO 09009KT 10SM SCT065 SCT090 20/10 A3017 RMK AO2 T02020100
KSEP 211835Z AUTO 09007KT 10SM OVC065 19/11 A3020 RMK AO2 T01900105
KSEP 211815Z AUTO 09008KT 10SM BKN065 19/11 A3019 RMK AO2 T01900106
KSEP 211755Z AUTO 09007KT 10SM BKN065 18/11 A3019 RMK AO2 T01810108 10191 20157
KSEP 211735Z AUTO 08009KT 10SM OVC065 18/11 A3020 RMK AO2 T01800108
KSEP 211715Z AUTO 08010KT 10SM OVC065 18/10 A3022 RMK AO2 T01780104


Page loaded:  05:01 UTC  |   10:01 PM Pacific  |   11:01 PM Mountain  |   12:01 AM Central  |   01:01 AM Eastern

 

ADVISORIES

FORECASTS

FORECASTS

OBSERVATIONS

USER TOOLS

ABOUT US